sensor_id;sensor_type;location;lat;lon;timestamp;P1;durP1;ratioP1;P2;durP2;ratioP2
77826;SDS011;67016;42.508;25.678;2023-05-10T00:02:09;14.82;;;7.72;;
77826;SDS011;67016;42.508;25.678;2023-05-10T00:04:35;14.15;;;7.68;;
77826;SDS011;67016;42.508;25.678;2023-05-10T00:07:00;15.25;;;7.10;;
77826;SDS011;67016;42.508;25.678;2023-05-10T00:09:26;11.48;;;6.57;;
77826;SDS011;67016;42.508;25.678;2023-05-10T00:11:52;14.52;;;7.72;;
77826;SDS011;67016;42.508;25.678;2023-05-10T00:14:18;9.77;;;6.72;;
77826;SDS011;67016;42.508;25.678;2023-05-10T00:16:44;10.82;;;6.32;;
77826;SDS011;67016;42.508;25.678;2023-05-10T00:19:09;15.60;;;7.20;;
77826;SDS011;67016;42.508;25.678;2023-05-10T00:21:35;15.60;;;6.68;;
77826;SDS011;67016;42.508;25.678;2023-05-10T00:24:01;12.95;;;6.90;;
77826;SDS011;67016;42.508;25.678;2023-05-10T00:26:27;16.02;;;7.20;;
77826;SDS011;67016;42.508;25.678;2023-05-10T00:28:52;11.57;;;7.13;;
77826;SDS011;67016;42.508;25.678;2023-05-10T00:31:18;11.57;;;7.40;;
77826;SDS011;67016;42.508;25.678;2023-05-10T00:33:44;10.60;;;6.63;;
77826;SDS011;67016;42.508;25.678;2023-05-10T00:36:09;8.88;;;6.93;;
77826;SDS011;67016;42.508;25.678;2023-05-10T00:38:35;17.30;;;7.75;;
77826;SDS011;67016;42.508;25.678;2023-05-10T00:41:01;13.65;;;7.32;;
77826;SDS011;67016;42.508;25.678;2023-05-10T00:43:27;11.32;;;6.90;;
77826;SDS011;67016;42.508;25.678;2023-05-10T00:45:52;13.93;;;7.20;;
77826;SDS011;67016;42.508;25.678;2023-05-10T00:48:18;8.98;;;6.97;;
77826;SDS011;67016;42.508;25.678;2023-05-10T00:50:44;10.70;;;7.78;;
77826;SDS011;67016;42.508;25.678;2023-05-10T00:53:10;13.65;;;8.25;;
77826;SDS011;67016;42.508;25.678;2023-05-10T00:55:35;16.55;;;9.15;;
77826;SDS011;67016;42.508;25.678;2023-05-10T00:58:02;14.07;;;9.10;;
77826;SDS011;67016;42.508;25.678;2023-05-10T01:00:28;11.38;;;8.05;;
77826;SDS011;67016;42.508;25.678;2023-05-10T01:02:54;15.32;;;10.05;;
77826;SDS011;67016;42.508;25.678;2023-05-10T01:05:20;10.82;;;8.48;;
77826;SDS011;67016;42.508;25.678;2023-05-10T01:07:46;11.13;;;9.30;;
77826;SDS011;67016;42.508;25.678;2023-05-10T01:10:12;27.38;;;17.58;;
77826;SDS011;67016;42.508;25.678;2023-05-10T01:12:39;18.52;;;12.20;;
77826;SDS011;67016;42.508;25.678;2023-05-10T01:15:09;15.75;;;10.15;;
77826;SDS011;67016;42.508;25.678;2023-05-10T01:17:36;17.23;;;9.20;;
77826;SDS011;67016;42.508;25.678;2023-05-10T01:20:03;12.63;;;8.38;;
77826;SDS011;67016;42.508;25.678;2023-05-10T01:28:06;10.35;;;7.78;;
77826;SDS011;67016;42.508;25.678;2023-05-10T01:33:30;10.35;;;7.90;;
77826;SDS011;67016;42.508;25.678;2023-05-10T01:38:55;15.30;;;8.68;;
77826;SDS011;67016;42.508;25.678;2023-05-10T01:46:38;18.05;;;8.18;;
77826;SDS011;67016;42.508;25.678;2023-05-10T01:49:08;11.05;;;7.45;;
77826;SDS011;67016;42.508;25.678;2023-05-10T01:54:32;12.57;;;8.50;;
77826;SDS011;67016;42.508;25.678;2023-05-10T01:57:00;12.68;;;8.85;;
77826;SDS011;67016;42.508;25.678;2023-05-10T02:01:55;11.32;;;8.27;;
77826;SDS011;67016;42.508;25.678;2023-05-10T02:04:23;13.80;;;8.43;;
77826;SDS011;67016;42.508;25.678;2023-05-10T02:06:49;11.98;;;8.32;;
77826;SDS011;67016;42.508;25.678;2023-05-10T02:09:15;10.30;;;8.48;;
77826;SDS011;67016;42.508;25.678;2023-05-10T02:11:43;16.35;;;9.40;;
77826;SDS011;67016;42.508;25.678;2023-05-10T02:14:09;14.55;;;9.13;;
77826;SDS011;67016;42.508;25.678;2023-05-10T02:16:36;12.02;;;8.57;;
77826;SDS011;67016;42.508;25.678;2023-05-10T02:19:03;15.02;;;8.85;;
77826;SDS011;67016;42.508;25.678;2023-05-10T02:21:29;13.40;;;8.07;;
77826;SDS011;67016;42.508;25.678;2023-05-10T02:23:56;13.63;;;8.80;;
77826;SDS011;67016;42.508;25.678;2023-05-10T02:26:22;20.00;;;9.02;;
77826;SDS011;67016;42.508;25.678;2023-05-10T02:28:49;14.73;;;8.90;;
77826;SDS011;67016;42.508;25.678;2023-05-10T02:31:14;16.15;;;8.30;;
77826;SDS011;67016;42.508;25.678;2023-05-10T02:33:40;15.25;;;8.88;;
77826;SDS011;67016;42.508;25.678;2023-05-10T02:36:07;13.18;;;8.13;;
77826;SDS011;67016;42.508;25.678;2023-05-10T02:38:33;19.88;;;8.82;;
77826;SDS011;67016;42.508;25.678;2023-05-10T02:41:00;16.17;;;8.95;;
77826;SDS011;67016;42.508;25.678;2023-05-10T02:43:27;15.93;;;9.05;;
77826;SDS011;67016;42.508;25.678;2023-05-10T02:45:54;12.85;;;8.75;;
77826;SDS011;67016;42.508;25.678;2023-05-10T02:48:19;18.25;;;9.13;;
77826;SDS011;67016;42.508;25.678;2023-05-10T02:50:45;16.33;;;9.23;;
77826;SDS011;67016;42.508;25.678;2023-05-10T02:53:18;13.90;;;9.25;;
77826;SDS011;67016;42.508;25.678;2023-05-10T02:58:13;12.93;;;10.95;;
77826;SDS011;67016;42.508;25.678;2023-05-10T03:00:42;13.68;;;10.38;;
77826;SDS011;67016;42.508;25.678;2023-05-10T03:03:08;12.57;;;9.38;;
77826;SDS011;67016;42.508;25.678;2023-05-10T03:05:33;11.73;;;9.55;;
77826;SDS011;67016;42.508;25.678;2023-05-10T03:07:59;14.70;;;8.63;;
77826;SDS011;67016;42.508;25.678;2023-05-10T03:10:29;11.65;;;9.10;;
77826;SDS011;67016;42.508;25.678;2023-05-10T03:21:11;10.98;;;9.10;;
77826;SDS011;67016;42.508;25.678;2023-05-10T03:26:33;16.50;;;8.27;;
77826;SDS011;67016;42.508;25.678;2023-05-10T03:28:59;11.77;;;8.38;;
77826;SDS011;67016;42.508;25.678;2023-05-10T03:31:25;13.30;;;7.88;;
77826;SDS011;67016;42.508;25.678;2023-05-10T03:33:51;11.73;;;8.43;;
77826;SDS011;67016;42.508;25.678;2023-05-10T03:36:18;16.52;;;8.35;;
77826;SDS011;67016;42.508;25.678;2023-05-10T03:38:44;13.57;;;8.63;;
77826;SDS011;67016;42.508;25.678;2023-05-10T03:41:10;10.73;;;7.90;;
77826;SDS011;67016;42.508;25.678;2023-05-10T03:43:35;12.63;;;8.13;;
77826;SDS011;67016;42.508;25.678;2023-05-10T03:46:02;13.32;;;8.18;;
77826;SDS011;67016;42.508;25.678;2023-05-10T03:48:28;11.48;;;7.85;;
77826;SDS011;67016;42.508;25.678;2023-05-10T03:50:54;9.25;;;7.95;;
77826;SDS011;67016;42.508;25.678;2023-05-10T03:53:19;9.40;;;8.07;;
77826;SDS011;67016;42.508;25.678;2023-05-10T03:55:45;9.55;;;7.68;;
77826;SDS011;67016;42.508;25.678;2023-05-10T03:58:11;13.43;;;7.82;;
77826;SDS011;67016;42.508;25.678;2023-05-10T04:00:37;13.30;;;7.13;;
77826;SDS011;67016;42.508;25.678;2023-05-10T04:03:09;12.18;;;8.02;;
77826;SDS011;67016;42.508;25.678;2023-05-10T04:05:35;11.15;;;8.23;;
77826;SDS011;67016;42.508;25.678;2023-05-10T04:08:01;9.70;;;7.85;;
77826;SDS011;67016;42.508;25.678;2023-05-10T04:10:27;10.40;;;8.32;;
77826;SDS011;67016;42.508;25.678;2023-05-10T04:12:53;14.98;;;9.07;;
77826;SDS011;67016;42.508;25.678;2023-05-10T04:15:19;16.50;;;10.55;;
77826;SDS011;67016;42.508;25.678;2023-05-10T04:17:44;10.50;;;6.70;;
77826;SDS011;67016;42.508;25.678;2023-05-10T04:20:10;18.38;;;7.60;;
77826;SDS011;67016;42.508;25.678;2023-05-10T04:22:36;10.38;;;5.38;;
77826;SDS011;67016;42.508;25.678;2023-05-10T04:25:02;15.93;;;9.73;;
77826;SDS011;67016;42.508;25.678;2023-05-10T04:27:28;10.48;;;6.95;;
77826;SDS011;67016;42.508;25.678;2023-05-10T04:29:53;16.08;;;7.00;;
77826;SDS011;67016;42.508;25.678;2023-05-10T04:32:19;11.50;;;6.57;;
77826;SDS011;67016;42.508;25.678;2023-05-10T04:34:45;11.52;;;6.13;;
77826;SDS011;67016;42.508;25.678;2023-05-10T04:37:11;13.32;;;8.10;;
77826;SDS011;67016;42.508;25.678;2023-05-10T04:39:36;21.13;;;10.95;;
77826;SDS011;67016;42.508;25.678;2023-05-10T04:42:05;12.82;;;6.32;;
77826;SDS011;67016;42.508;25.678;2023-05-10T04:44:31;8.43;;;5.55;;
77826;SDS011;67016;42.508;25.678;2023-05-10T04:46:57;9.57;;;5.63;;
77826;SDS011;67016;42.508;25.678;2023-05-10T04:49:23;7.60;;;5.22;;
77826;SDS011;67016;42.508;25.678;2023-05-10T04:51:48;7.93;;;5.00;;
77826;SDS011;67016;42.508;25.678;2023-05-10T04:54:14;9.02;;;5.07;;
77826;SDS011;67016;42.508;25.678;2023-05-10T04:56:40;6.38;;;5.00;;
77826;SDS011;67016;42.508;25.678;2023-05-10T04:59:06;9.70;;;5.63;;
77826;SDS011;67016;42.508;25.678;2023-05-10T05:01:32;30.20;;;14.80;;
77826;SDS011;67016;42.508;25.678;2023-05-10T05:03:57;18.23;;;10.02;;
77826;SDS011;67016;42.508;25.678;2023-05-10T05:06:24;7.78;;;5.32;;
77826;SDS011;67016;42.508;25.678;2023-05-10T05:08:50;9.30;;;4.15;;
77826;SDS011;67016;42.508;25.678;2023-05-10T05:11:16;7.05;;;4.93;;
77826;SDS011;67016;42.508;25.678;2023-05-10T05:13:42;10.68;;;5.95;;
77826;SDS011;67016;42.508;25.678;2023-05-10T05:16:08;15.65;;;5.88;;
77826;SDS011;67016;42.508;25.678;2023-05-10T05:18:34;9.18;;;4.40;;
77826;SDS011;67016;42.508;25.678;2023-05-10T05:20:59;10.15;;;4.57;;
77826;SDS011;67016;42.508;25.678;2023-05-10T05:23:26;8.48;;;4.32;;
77826;SDS011;67016;42.508;25.678;2023-05-10T05:25:52;5.80;;;4.30;;
77826;SDS011;67016;42.508;25.678;2023-05-10T05:28:18;7.65;;;5.55;;
77826;SDS011;67016;42.508;25.678;2023-05-10T05:30:45;8.35;;;4.88;;
77826;SDS011;67016;42.508;25.678;2023-05-10T05:33:11;5.78;;;4.53;;
77826;SDS011;67016;42.508;25.678;2023-05-10T05:35:37;8.48;;;5.20;;
77826;SDS011;67016;42.508;25.678;2023-05-10T05:38:02;12.18;;;7.07;;
77826;SDS011;67016;42.508;25.678;2023-05-10T05:40:28;8.02;;;5.30;;
77826;SDS011;67016;42.508;25.678;2023-05-10T05:42:54;9.35;;;4.70;;
77826;SDS011;67016;42.508;25.678;2023-05-10T05:45:19;7.90;;;4.70;;
77826;SDS011;67016;42.508;25.678;2023-05-10T05:47:46;6.43;;;3.92;;
77826;SDS011;67016;42.508;25.678;2023-05-10T05:50:12;12.80;;;9.80;;
77826;SDS011;67016;42.508;25.678;2023-05-10T05:52:38;13.05;;;7.20;;
77826;SDS011;67016;42.508;25.678;2023-05-10T05:55:03;10.18;;;5.18;;
77826;SDS011;67016;42.508;25.678;2023-05-10T05:57:29;9.02;;;4.82;;
77826;SDS011;67016;42.508;25.678;2023-05-10T05:59:55;6.80;;;4.75;;
77826;SDS011;67016;42.508;25.678;2023-05-10T06:02:21;13.35;;;7.05;;
77826;SDS011;67016;42.508;25.678;2023-05-10T06:04:47;10.30;;;5.30;;
77826;SDS011;67016;42.508;25.678;2023-05-10T06:07:12;8.30;;;5.30;;
77826;SDS011;67016;42.508;25.678;2023-05-10T06:09:38;13.40;;;4.63;;
77826;SDS011;67016;42.508;25.678;2023-05-10T06:12:04;7.60;;;4.45;;
77826;SDS011;67016;42.508;25.678;2023-05-10T06:14:30;7.05;;;4.30;;
77826;SDS011;67016;42.508;25.678;2023-05-10T06:16:55;8.00;;;4.60;;
77826;SDS011;67016;42.508;25.678;2023-05-10T06:19:21;9.00;;;4.25;;
77826;SDS011;67016;42.508;25.678;2023-05-10T06:21:47;7.35;;;4.60;;
77826;SDS011;67016;42.508;25.678;2023-05-10T06:24:12;8.00;;;4.32;;
77826;SDS011;67016;42.508;25.678;2023-05-10T06:26:38;6.65;;;4.40;;
77826;SDS011;67016;42.508;25.678;2023-05-10T06:29:04;11.07;;;4.70;;
77826;SDS011;67016;42.508;25.678;2023-05-10T06:31:30;6.75;;;3.88;;
77826;SDS011;67016;42.508;25.678;2023-05-10T06:33:56;7.05;;;4.68;;
77826;SDS011;67016;42.508;25.678;2023-05-10T06:36:22;9.10;;;4.20;;
77826;SDS011;67016;42.508;25.678;2023-05-10T06:38:49;8.57;;;4.10;;
77826;SDS011;67016;42.508;25.678;2023-05-10T06:41:16;11.23;;;4.43;;
77826;SDS011;67016;42.508;25.678;2023-05-10T06:43:41;8.65;;;4.43;;
77826;SDS011;67016;42.508;25.678;2023-05-10T06:46:08;11.35;;;5.28;;
77826;SDS011;67016;42.508;25.678;2023-05-10T06:48:34;6.72;;;4.53;;
77826;SDS011;67016;42.508;25.678;2023-05-10T06:51:00;7.43;;;3.97;;
77826;SDS011;67016;42.508;25.678;2023-05-10T06:53:25;4.53;;;3.75;;
77826;SDS011;67016;42.508;25.678;2023-05-10T06:55:51;8.90;;;4.53;;
77826;SDS011;67016;42.508;25.678;2023-05-10T06:58:17;6.55;;;4.70;;
77826;SDS011;67016;42.508;25.678;2023-05-10T07:00:42;9.20;;;5.00;;
77826;SDS011;67016;42.508;25.678;2023-05-10T07:03:10;10.35;;;5.05;;
77826;SDS011;67016;42.508;25.678;2023-05-10T07:05:36;7.40;;;4.65;;
77826;SDS011;67016;42.508;25.678;2023-05-10T07:08:01;12.02;;;4.68;;
77826;SDS011;67016;42.508;25.678;2023-05-10T07:10:27;7.40;;;4.07;;
77826;SDS011;67016;42.508;25.678;2023-05-10T07:12:53;8.25;;;4.22;;
77826;SDS011;67016;42.508;25.678;2023-05-10T07:15:19;5.78;;;4.10;;
77826;SDS011;67016;42.508;25.678;2023-05-10T07:17:44;8.82;;;4.10;;
77826;SDS011;67016;42.508;25.678;2023-05-10T07:20:10;6.07;;;4.28;;
77826;SDS011;67016;42.508;25.678;2023-05-10T07:22:36;6.18;;;4.03;;
77826;SDS011;67016;42.508;25.678;2023-05-10T07:25:02;6.53;;;4.05;;
77826;SDS011;67016;42.508;25.678;2023-05-10T07:27:28;5.72;;;4.43;;
77826;SDS011;67016;42.508;25.678;2023-05-10T07:29:53;8.93;;;3.75;;
77826;SDS011;67016;42.508;25.678;2023-05-10T07:32:19;7.18;;;4.28;;
77826;SDS011;67016;42.508;25.678;2023-05-10T07:34:46;8.32;;;4.15;;
77826;SDS011;67016;42.508;25.678;2023-05-10T07:37:12;6.95;;;4.40;;
77826;SDS011;67016;42.508;25.678;2023-05-10T07:39:40;8.10;;;4.20;;
77826;SDS011;67016;42.508;25.678;2023-05-10T07:42:06;10.00;;;3.95;;
77826;SDS011;67016;42.508;25.678;2023-05-10T07:44:32;7.75;;;3.83;;
77826;SDS011;67016;42.508;25.678;2023-05-10T07:46:57;7.25;;;4.43;;
77826;SDS011;67016;42.508;25.678;2023-05-10T07:49:23;4.78;;;3.97;;
77826;SDS011;67016;42.508;25.678;2023-05-10T07:51:49;4.43;;;3.53;;
77826;SDS011;67016;42.508;25.678;2023-05-10T07:54:15;7.18;;;4.65;;
77826;SDS011;67016;42.508;25.678;2023-05-10T07:56:40;8.77;;;4.68;;
77826;SDS011;67016;42.508;25.678;2023-05-10T07:59:14;9.70;;;4.70;;
77826;SDS011;67016;42.508;25.678;2023-05-10T08:01:40;8.40;;;4.47;;
77826;SDS011;67016;42.508;25.678;2023-05-10T08:04:07;8.23;;;4.15;;
77826;SDS011;67016;42.508;25.678;2023-05-10T08:06:32;6.20;;;4.20;;
77826;SDS011;67016;42.508;25.678;2023-05-10T08:08:58;8.43;;;4.13;;
77826;SDS011;67016;42.508;25.678;2023-05-10T08:11:24;5.88;;;4.30;;
77826;SDS011;67016;42.508;25.678;2023-05-10T08:13:50;4.63;;;4.00;;
77826;SDS011;67016;42.508;25.678;2023-05-10T08:16:16;8.43;;;4.00;;
77826;SDS011;67016;42.508;25.678;2023-05-10T08:18:43;9.10;;;5.05;;
77826;SDS011;67016;42.508;25.678;2023-05-10T08:21:10;4.45;;;3.40;;
77826;SDS011;67016;42.508;25.678;2023-05-10T08:23:36;6.97;;;4.15;;
77826;SDS011;67016;42.508;25.678;2023-05-10T08:26:02;6.18;;;3.35;;
77826;SDS011;67016;42.508;25.678;2023-05-10T08:28:28;4.88;;;3.20;;
77826;SDS011;67016;42.508;25.678;2023-05-10T08:30:54;9.65;;;4.20;;
77826;SDS011;67016;42.508;25.678;2023-05-10T08:33:19;9.38;;;3.45;;
77826;SDS011;67016;42.508;25.678;2023-05-10T08:35:45;8.60;;;4.22;;
77826;SDS011;67016;42.508;25.678;2023-05-10T08:38:11;4.70;;;2.85;;
77826;SDS011;67016;42.508;25.678;2023-05-10T08:40:38;28.92;;;16.67;;
77826;SDS011;67016;42.508;25.678;2023-05-10T08:43:08;10.68;;;6.50;;
77826;SDS011;67016;42.508;25.678;2023-05-10T08:45:39;6.82;;;3.67;;
77826;SDS011;67016;42.508;25.678;2023-05-10T08:48:06;7.30;;;3.00;;
77826;SDS011;67016;42.508;25.678;2023-05-10T08:50:33;3.78;;;2.90;;
77826;SDS011;67016;42.508;25.678;2023-05-10T08:53:05;10.35;;;6.82;;
77826;SDS011;67016;42.508;25.678;2023-05-10T08:55:32;6.13;;;3.67;;
77826;SDS011;67016;42.508;25.678;2023-05-10T08:58:03;4.20;;;3.22;;
77826;SDS011;67016;42.508;25.678;2023-05-10T09:00:31;5.30;;;2.83;;
77826;SDS011;67016;42.508;25.678;2023-05-10T09:02:58;6.40;;;3.47;;
77826;SDS011;67016;42.508;25.678;2023-05-10T09:05:24;4.20;;;3.03;;
77826;SDS011;67016;42.508;25.678;2023-05-10T09:07:50;8.65;;;3.03;;
77826;SDS011;67016;42.508;25.678;2023-05-10T09:10:16;5.25;;;2.83;;
77826;SDS011;67016;42.508;25.678;2023-05-10T09:12:42;4.47;;;3.20;;
77826;SDS011;67016;42.508;25.678;2023-05-10T09:15:10;5.15;;;3.33;;
77826;SDS011;67016;42.508;25.678;2023-05-10T09:17:36;9.40;;;3.20;;
77826;SDS011;67016;42.508;25.678;2023-05-10T09:20:04;7.80;;;3.30;;
77826;SDS011;67016;42.508;25.678;2023-05-10T09:22:30;4.00;;;2.80;;
77826;SDS011;67016;42.508;25.678;2023-05-10T09:27:32;4.43;;;3.10;;
77826;SDS011;67016;42.508;25.678;2023-05-10T09:29:58;5.18;;;2.97;;
77826;SDS011;67016;42.508;25.678;2023-05-10T09:32:45;3.47;;;2.78;;
77826;SDS011;67016;42.508;25.678;2023-05-10T09:35:16;3.42;;;2.78;;
77826;SDS011;67016;42.508;25.678;2023-05-10T09:37:44;4.65;;;2.97;;
77826;SDS011;67016;42.508;25.678;2023-05-10T09:40:14;3.90;;;2.72;;
77826;SDS011;67016;42.508;25.678;2023-05-10T09:42:51;3.95;;;2.97;;
77826;SDS011;67016;42.508;25.678;2023-05-10T09:45:21;3.67;;;2.80;;
77826;SDS011;67016;42.508;25.678;2023-05-10T09:47:47;5.15;;;2.80;;
77826;SDS011;67016;42.508;25.678;2023-05-10T09:50:13;7.72;;;3.17;;
77826;SDS011;67016;42.508;25.678;2023-05-10T09:52:51;4.38;;;2.97;;
77826;SDS011;67016;42.508;25.678;2023-05-10T09:55:44;7.55;;;2.90;;
77826;SDS011;67016;42.508;25.678;2023-05-10T09:58:11;5.53;;;3.05;;
77826;SDS011;67016;42.508;25.678;2023-05-10T10:00:38;6.57;;;3.13;;
77826;SDS011;67016;42.508;25.678;2023-05-10T10:03:05;6.70;;;3.10;;
77826;SDS011;67016;42.508;25.678;2023-05-10T10:05:32;3.90;;;2.80;;
77826;SDS011;67016;42.508;25.678;2023-05-10T10:07:59;8.77;;;3.40;;
77826;SDS011;67016;42.508;25.678;2023-05-10T10:10:26;3.90;;;3.00;;
77826;SDS011;67016;42.508;25.678;2023-05-10T10:12:52;5.03;;;3.00;;
77826;SDS011;67016;42.508;25.678;2023-05-10T10:15:19;4.38;;;2.88;;
77826;SDS011;67016;42.508;25.678;2023-05-10T10:17:45;5.40;;;2.88;;
77826;SDS011;67016;42.508;25.678;2023-05-10T10:20:12;7.05;;;3.38;;
77826;SDS011;67016;42.508;25.678;2023-05-10T10:22:38;6.90;;;3.30;;
77826;SDS011;67016;42.508;25.678;2023-05-10T10:25:04;5.78;;;3.13;;
77826;SDS011;67016;42.508;25.678;2023-05-10T10:30:04;5.07;;;2.90;;
77826;SDS011;67016;42.508;25.678;2023-05-10T10:32:50;4.07;;;2.85;;
77826;SDS011;67016;42.508;25.678;2023-05-10T10:35:36;3.25;;;2.95;;
77826;SDS011;67016;42.508;25.678;2023-05-10T10:38:02;6.22;;;3.60;;
77826;SDS011;67016;42.508;25.678;2023-05-10T10:40:31;5.07;;;3.08;;
77826;SDS011;67016;42.508;25.678;2023-05-10T10:42:59;5.47;;;3.15;;
77826;SDS011;67016;42.508;25.678;2023-05-10T10:45:56;5.45;;;3.25;;
77826;SDS011;67016;42.508;25.678;2023-05-10T10:49:28;4.70;;;3.55;;
77826;SDS011;67016;42.508;25.678;2023-05-10T10:51:38;4.30;;;3.35;;
77826;SDS011;67016;42.508;25.678;2023-05-10T10:54:10;3.47;;;2.80;;
77826;SDS011;67016;42.508;25.678;2023-05-10T10:56:36;5.07;;;3.10;;
77826;SDS011;67016;42.508;25.678;2023-05-10T10:59:02;4.15;;;2.97;;
77826;SDS011;67016;42.508;25.678;2023-05-10T11:01:32;5.28;;;3.28;;
77826;SDS011;67016;42.508;25.678;2023-05-10T11:06:29;8.75;;;3.03;;
77826;SDS011;67016;42.508;25.678;2023-05-10T11:09:05;7.50;;;2.70;;
77826;SDS011;67016;42.508;25.678;2023-05-10T11:11:34;4.38;;;2.50;;
77826;SDS011;67016;42.508;25.678;2023-05-10T11:14:03;13.00;;;4.85;;
77826;SDS011;67016;42.508;25.678;2023-05-10T11:16:40;10.30;;;4.88;;
77826;SDS011;67016;42.508;25.678;2023-05-10T11:19:16;9.05;;;3.13;;
77826;SDS011;67016;42.508;25.678;2023-05-10T11:21:52;5.28;;;2.42;;
77826;SDS011;67016;42.508;25.678;2023-05-10T11:24:38;5.07;;;2.75;;
77826;SDS011;67016;42.508;25.678;2023-05-10T11:27:05;5.50;;;3.00;;
77826;SDS011;67016;42.508;25.678;2023-05-10T11:29:31;4.65;;;3.33;;
77826;SDS011;67016;42.508;25.678;2023-05-10T11:31:57;3.70;;;2.97;;
77826;SDS011;67016;42.508;25.678;2023-05-10T11:34:24;5.00;;;3.20;;
77826;SDS011;67016;42.508;25.678;2023-05-10T11:36:53;5.85;;;2.97;;
77826;SDS011;67016;42.508;25.678;2023-05-10T11:39:20;4.60;;;3.00;;
77826;SDS011;67016;42.508;25.678;2023-05-10T11:41:49;5.95;;;3.00;;
77826;SDS011;67016;42.508;25.678;2023-05-10T11:44:15;5.18;;;2.90;;
77826;SDS011;67016;42.508;25.678;2023-05-10T11:46:41;5.18;;;3.03;;
77826;SDS011;67016;42.508;25.678;2023-05-10T11:49:07;6.72;;;2.78;;
77826;SDS011;67016;42.508;25.678;2023-05-10T11:51:36;3.15;;;2.65;;
77826;SDS011;67016;42.508;25.678;2023-05-10T11:54:05;5.05;;;3.15;;
77826;SDS011;67016;42.508;25.678;2023-05-10T11:56:33;3.03;;;2.60;;
77826;SDS011;67016;42.508;25.678;2023-05-10T11:58:59;4.45;;;2.70;;
77826;SDS011;67016;42.508;25.678;2023-05-10T12:01:27;7.93;;;3.33;;
77826;SDS011;67016;42.508;25.678;2023-05-10T12:03:54;3.58;;;2.60;;
77826;SDS011;67016;42.508;25.678;2023-05-10T12:06:26;5.75;;;3.05;;
77826;SDS011;67016;42.508;25.678;2023-05-10T12:08:53;3.22;;;2.38;;
77826;SDS011;67016;42.508;25.678;2023-05-10T12:11:19;3.28;;;2.60;;
77826;SDS011;67016;42.508;25.678;2023-05-10T12:13:46;6.60;;;2.97;;
77826;SDS011;67016;42.508;25.678;2023-05-10T12:16:15;6.07;;;3.53;;
77826;SDS011;67016;42.508;25.678;2023-05-10T12:21:14;6.07;;;3.47;;
77826;SDS011;67016;42.508;25.678;2023-05-10T12:23:40;3.60;;;2.65;;
77826;SDS011;67016;42.508;25.678;2023-05-10T12:26:09;3.75;;;2.60;;
77826;SDS011;67016;42.508;25.678;2023-05-10T12:28:35;2.92;;;2.42;;
77826;SDS011;67016;42.508;25.678;2023-05-10T12:31:02;3.90;;;2.72;;
77826;SDS011;67016;42.508;25.678;2023-05-10T12:33:35;8.82;;;3.20;;
77826;SDS011;67016;42.508;25.678;2023-05-10T12:36:08;5.32;;;2.53;;
77826;SDS011;67016;42.508;25.678;2023-05-10T12:38:35;3.42;;;2.47;;
77826;SDS011;67016;42.508;25.678;2023-05-10T12:41:06;4.28;;;2.42;;
77826;SDS011;67016;42.508;25.678;2023-05-10T12:43:32;6.95;;;2.38;;
77826;SDS011;67016;42.508;25.678;2023-05-10T12:45:58;7.78;;;2.65;;
77826;SDS011;67016;42.508;25.678;2023-05-10T12:48:29;4.32;;;2.65;;
77826;SDS011;67016;42.508;25.678;2023-05-10T12:50:56;3.95;;;2.88;;
77826;SDS011;67016;42.508;25.678;2023-05-10T12:53:22;3.33;;;2.70;;
77826;SDS011;67016;42.508;25.678;2023-05-10T12:55:48;5.07;;;2.70;;
77826;SDS011;67016;42.508;25.678;2023-05-10T12:58:13;5.95;;;2.70;;
77826;SDS011;67016;42.508;25.678;2023-05-10T13:00:39;3.67;;;2.95;;
77826;SDS011;67016;42.508;25.678;2023-05-10T13:03:05;4.65;;;2.40;;
77826;SDS011;67016;42.508;25.678;2023-05-10T13:05:33;2.92;;;2.60;;
77826;SDS011;67016;42.508;25.678;2023-05-10T13:07:59;2.90;;;2.45;;
77826;SDS011;67016;42.508;25.678;2023-05-10T13:10:25;2.88;;;2.40;;
77826;SDS011;67016;42.508;25.678;2023-05-10T13:12:51;6.10;;;3.35;;
77826;SDS011;67016;42.508;25.678;2023-05-10T13:15:17;2.78;;;2.50;;
77826;SDS011;67016;42.508;25.678;2023-05-10T13:17:43;4.18;;;2.85;;
77826;SDS011;67016;42.508;25.678;2023-05-10T13:20:10;5.75;;;3.22;;
77826;SDS011;67016;42.508;25.678;2023-05-10T13:22:36;2.60;;;2.40;;
77826;SDS011;67016;42.508;25.678;2023-05-10T13:25:02;3.58;;;2.58;;
77826;SDS011;67016;42.508;25.678;2023-05-10T13:27:28;3.53;;;2.50;;
77826;SDS011;67016;42.508;25.678;2023-05-10T13:29:53;3.25;;;2.22;;
77826;SDS011;67016;42.508;25.678;2023-05-10T13:32:20;4.72;;;2.53;;
77826;SDS011;67016;42.508;25.678;2023-05-10T13:34:46;5.18;;;3.00;;
77826;SDS011;67016;42.508;25.678;2023-05-10T13:37:12;2.78;;;2.22;;
77826;SDS011;67016;42.508;25.678;2023-05-10T13:39:37;8.30;;;2.65;;
77826;SDS011;67016;42.508;25.678;2023-05-10T13:42:03;4.20;;;3.75;;
77826;SDS011;67016;42.508;25.678;2023-05-10T13:44:29;3.08;;;2.08;;
77826;SDS011;67016;42.508;25.678;2023-05-10T13:46:56;4.47;;;2.80;;
77826;SDS011;67016;42.508;25.678;2023-05-10T13:49:21;3.40;;;2.67;;
77826;SDS011;67016;42.508;25.678;2023-05-10T13:51:47;3.22;;;2.20;;
77826;SDS011;67016;42.508;25.678;2023-05-10T13:54:13;4.65;;;2.40;;
77826;SDS011;67016;42.508;25.678;2023-05-10T13:56:39;5.38;;;2.55;;
77826;SDS011;67016;42.508;25.678;2023-05-10T13:59:06;3.38;;;2.63;;
77826;SDS011;67016;42.508;25.678;2023-05-10T14:01:32;4.63;;;2.60;;
77826;SDS011;67016;42.508;25.678;2023-05-10T14:03:59;4.05;;;2.92;;
77826;SDS011;67016;42.508;25.678;2023-05-10T14:06:25;5.90;;;2.80;;
77826;SDS011;67016;42.508;25.678;2023-05-10T14:08:52;5.93;;;2.67;;
77826;SDS011;67016;42.508;25.678;2023-05-10T14:11:18;6.00;;;2.90;;
77826;SDS011;67016;42.508;25.678;2023-05-10T14:13:44;3.30;;;2.63;;
77826;SDS011;67016;42.508;25.678;2023-05-10T14:16:10;4.78;;;3.00;;
77826;SDS011;67016;42.508;25.678;2023-05-10T14:18:36;5.72;;;3.35;;
77826;SDS011;67016;42.508;25.678;2023-05-10T14:21:03;4.15;;;3.08;;
77826;SDS011;67016;42.508;25.678;2023-05-10T14:23:29;5.75;;;2.90;;
77826;SDS011;67016;42.508;25.678;2023-05-10T14:25:55;5.20;;;3.33;;
77826;SDS011;67016;42.508;25.678;2023-05-10T14:28:21;5.05;;;3.30;;
77826;SDS011;67016;42.508;25.678;2023-05-10T14:30:48;7.30;;;3.20;;
77826;SDS011;67016;42.508;25.678;2023-05-10T14:33:13;5.07;;;3.03;;
77826;SDS011;67016;42.508;25.678;2023-05-10T14:35:39;3.97;;;3.47;;
77826;SDS011;67016;42.508;25.678;2023-05-10T14:38:05;8.18;;;3.60;;
77826;SDS011;67016;42.508;25.678;2023-05-10T14:40:31;6.18;;;2.83;;
77826;SDS011;67016;42.508;25.678;2023-05-10T14:42:57;5.80;;;3.08;;
77826;SDS011;67016;42.508;25.678;2023-05-10T14:45:22;4.10;;;3.47;;
77826;SDS011;67016;42.508;25.678;2023-05-10T14:47:48;6.82;;;3.88;;
77826;SDS011;67016;42.508;25.678;2023-05-10T14:50:15;3.90;;;2.90;;
77826;SDS011;67016;42.508;25.678;2023-05-10T14:52:42;4.80;;;2.92;;
77826;SDS011;67016;42.508;25.678;2023-05-10T14:55:08;5.30;;;3.00;;
77826;SDS011;67016;42.508;25.678;2023-05-10T14:57:34;3.75;;;3.10;;
77826;SDS011;67016;42.508;25.678;2023-05-10T15:00:01;6.15;;;3.00;;
77826;SDS011;67016;42.508;25.678;2023-05-10T15:02:27;3.40;;;3.00;;
77826;SDS011;67016;42.508;25.678;2023-05-10T15:04:53;4.63;;;3.10;;
77826;SDS011;67016;42.508;25.678;2023-05-10T15:07:19;3.33;;;3.00;;
77826;SDS011;67016;42.508;25.678;2023-05-10T15:09:45;4.07;;;3.22;;
77826;SDS011;67016;42.508;25.678;2023-05-10T15:12:10;4.80;;;3.20;;
77826;SDS011;67016;42.508;25.678;2023-05-10T15:14:36;4.95;;;2.80;;
77826;SDS011;67016;42.508;25.678;2023-05-10T15:17:02;4.38;;;3.17;;